»·PEaware :: N247VD KVNY-KONT

N247VD :: KVNY-KONT

FLIGHT INFORMATION

Flight Status: Arrived
Operator: Privately registered:
United States
More flights under this callsign
Pilot: Alan P. (12184)
Aircraft: MOONEY M-20 201 202 205 220 ATS MSE
(M20P)
More flights by this aircraft type
Origin: KVNY Van Nuys
United States
Destination: KONT Ontario Intl
United States
More flights between these airports :: More routes between these airports
Route: +ADAMM3 ADAMM V186 PDZ
File this flight plan on PilotEdge
Remarks:
Altitude:
(Current/Filed)
7,000ft
Speed:
(Current/Filed)
140kts
Departed: 14-Jun-20 07:06 PM
Arrived: 14-Jun-20 08:08 PM
Distance/Time
Traveled:
45nm/1:02
Distance/Time
To Go:
Arrived

Flight Plot

Page will automatically refresh every two minutes.

Flight plan parsing failed; only flown route is shown


Map Options




Map Legend


Flown Route
Filed Route
Departure Airport
Arrival Airport
Navaid (VOR, NDB)
Fix

Horizontal Profiles

Position Reports

Time Latitude Longitude Heading Altitude Ground
Speed
14-Jun-20 18:40 34.204257 -118.491696 180 804ft 0kts
14-Jun-20 18:40 34.204257 -118.491696 180 804ft 0kts
14-Jun-20 18:41 34.204257 -118.491696 180 804ft 0kts
14-Jun-20 18:44 34.204257 -118.491696 180 804ft 0kts
14-Jun-20 18:45 34.204257 -118.491696 180 804ft 0kts
14-Jun-20 18:46 34.204257 -118.491696 180 804ft 0kts
14-Jun-20 18:47 34.204257 -118.491696 180 804ft 0kts
14-Jun-20 18:48 34.204257 -118.491696 180 804ft 0kts
14-Jun-20 18:49 34.204257 -118.491696 180 804ft 0kts
14-Jun-20 18:50 34.204257 -118.491696 180 804ft 0kts
14-Jun-20 18:51 34.204257 -118.491696 180 804ft 0kts
14-Jun-20 18:52 34.204257 -118.491696 180 804ft 0kts
14-Jun-20 18:53 34.204257 -118.491696 180 804ft 0kts
14-Jun-20 18:54 34.204172 -118.491467 84 804ft 4kts
14-Jun-20 18:55 34.204184 -118.491341 83 804ft 0kts
14-Jun-20 18:56 34.204184 -118.491341 83 804ft 0kts
14-Jun-20 18:57 34.205275 -118.491113 355 804ft 11kts
14-Jun-20 18:58 34.208770 -118.491435 356 804ft 18kts
14-Jun-20 18:59 34.212167 -118.491767 355 804ft 13kts
14-Jun-20 19:00 34.215535 -118.492169 353 804ft 20kts
14-Jun-20 19:01 34.218612 -118.492269 44 804ft 4kts
14-Jun-20 19:02 34.218624 -118.492254 45 804ft 0kts
14-Jun-20 19:03 34.218624 -118.492254 45 804ft 0kts
14-Jun-20 19:04 34.218480 -118.491269 145 804ft 0kts
14-Jun-20 19:05 34.204672 -118.490414 181 959ft 107kts
14-Jun-20 19:06 34.179119 -118.489874 135 2138ft 102kts
14-Jun-20 19:07 34.164897 -118.465299 113 3107ft 104kts
14-Jun-20 19:08 34.163338 -118.437521 94 3993ft 109kts
14-Jun-20 19:09 34.161509 -118.409653 96 4904ft 105kts
14-Jun-20 19:10 34.159091 -118.379347 91 4985ft 148kts
14-Jun-20 19:11 34.158155 -118.342441 91 4978ft 163kts
14-Jun-20 19:12 34.157590 -118.302945 91 4976ft 174kts
14-Jun-20 19:13 34.156301 -118.261763 101 4974ft 179kts
14-Jun-20 19:14 34.145633 -118.221697 115 4982ft 179kts
14-Jun-20 19:15 34.130734 -118.182329 119 4983ft 180kts
14-Jun-20 19:16 34.115952 -118.143752 112 4984ft 181kts
14-Jun-20 19:17 34.103303 -118.104393 112 4983ft 181kts
14-Jun-20 19:18 34.090850 -118.065413 112 4984ft 181kts
14-Jun-20 19:19 34.078656 -118.027285 111 4988ft 181kts
14-Jun-20 19:20 34.066152 -117.988236 111 4992ft 181kts
14-Jun-20 19:21 34.053512 -117.948820 112 4994ft 182kts
14-Jun-20 19:22 34.041190 -117.910444 112 4991ft 173kts
14-Jun-20 19:23 34.030168 -117.876039 112 4994ft 159kts
14-Jun-20 19:24 34.019887 -117.844045 112 4997ft 155kts
14-Jun-20 19:25 34.009767 -117.812651 112 4995ft 155kts
14-Jun-20 19:26 33.999884 -117.782014 112 4991ft 156kts
14-Jun-20 19:27 33.989969 -117.751304 111 4987ft 156kts
14-Jun-20 19:28 33.979957 -117.720305 111 4984ft 156kts
14-Jun-20 19:29 33.969512 -117.688013 111 4982ft 157kts
14-Jun-20 19:30 33.958644 -117.654446 111 4980ft 158kts
14-Jun-20 19:31 33.947541 -117.620207 110 4961ft 160kts
14-Jun-20 19:32 33.936085 -117.584915 110 4958ft 160kts
14-Jun-20 19:33 33.925505 -117.550068 93 4958ft 159kts
14-Jun-20 19:34 33.927155 -117.514441 79 4962ft 158kts
14-Jun-20 19:35 33.931788 -117.473623 79 4963ft 158kts
14-Jun-20 19:36 33.936167 -117.434171 79 4964ft 158kts
14-Jun-20 19:37 33.940738 -117.394698 79 4966ft 158kts
14-Jun-20 19:38 33.945253 -117.355665 79 4967ft 158kts
14-Jun-20 19:39 33.949419 -117.319868 80 4975ft 157kts
14-Jun-20 19:40 33.953347 -117.286028 80 4976ft 157kts
14-Jun-20 19:41 33.957268 -117.252239 79 4978ft 157kts
14-Jun-20 19:42 33.963396 -117.219518 45 4981ft 152kts
14-Jun-20 19:43 33.989590 -117.214734 350 4979ft 144kts
14-Jun-20 19:44 34.017361 -117.219104 348 4977ft 144kts
14-Jun-20 19:45 34.034522 -117.241621 290 4977ft 139kts
14-Jun-20 19:46 34.044101 -117.271294 291 4974ft 138kts
14-Jun-20 19:47 34.053973 -117.300942 291 4974ft 137kts
14-Jun-20 19:48 34.063861 -117.330246 291 4975ft 136kts
14-Jun-20 19:49 34.069797 -117.359293 247 4981ft 136kts
14-Jun-20 19:50 34.045274 -117.362917 150 4761ft 164kts
14-Jun-20 19:51 34.026210 -117.333609 118 4365ft 162kts
14-Jun-20 19:52 34.022468 -117.300949 58 4333ft 136kts
14-Jun-20 19:53 34.042475 -117.298181 307 4365ft 107kts
14-Jun-20 19:54 34.051784 -117.320596 280 4326ft 105kts
14-Jun-20 19:55 34.052456 -117.346085 275 3940ft 120kts
14-Jun-20 19:56 34.054254 -117.369928 271 3309ft 106kts
14-Jun-20 19:57 34.055043 -117.393703 266 2961ft 92kts
14-Jun-20 19:58 34.054398 -117.414662 265 2885ft 87kts
14-Jun-20 19:59 34.054942 -117.435487 267 2946ft 86kts
14-Jun-20 20:00 34.054904 -117.456545 267 3038ft 86kts
14-Jun-20 20:01 34.054618 -117.477774 269 2717ft 101kts
14-Jun-20 20:02 34.055442 -117.501463 267 2348ft 102kts
14-Jun-20 20:03 34.055475 -117.526084 269 1910ft 104kts
14-Jun-20 20:04 34.055042 -117.548992 266 1525ft 90kts
14-Jun-20 20:05 34.055210 -117.569258 267 1187ft 71kts
14-Jun-20 20:06 34.054976 -117.585477 269 917ft 51kts
14-Jun-20 20:07 34.054115 -117.589773 197 914ft 12kts
14-Jun-20 20:08 34.053836 -117.594079 273 913ft 12kts

Navigation Log

Ident Type
Flight plan parsing failed, navigation log unavailable